Terminal Aerodrome Forecast
Issued by NWS Cleveland, OH

Home | Current Version | Previous Version | Text Only | Print | Product List | Glossary Off
Versions: 1 2 3 4 5 6 7 8 9 10 11 12 13

456
FTUS41 KCLE 260530
TAFMFD
TAF
KMFD 260530Z 2606/2706 22007KT P6SM BKN080
     FM261400 25012G20KT P6SM OVC050
     FM270000 25012KT P6SM SCT060 BKN100=

USA.gov is the U.S. government's official web portal to all federal, state and local government web resources and services.